sensor_id;sensor_type;location;lat;lon;timestamp;P1;durP1;ratioP1;P2;durP2;ratioP2
73816;SDS011;62146;53.232;-1.304;2023-04-07T00:00:56;3.47;;;1.00;;
73816;SDS011;62146;53.232;-1.304;2023-04-07T00:03:22;8.13;;;1.20;;
73816;SDS011;62146;53.232;-1.304;2023-04-07T00:05:49;5.53;;;1.33;;
73816;SDS011;62146;53.232;-1.304;2023-04-07T00:08:16;8.90;;;1.23;;
73816;SDS011;62146;53.232;-1.304;2023-04-07T00:10:42;4.15;;;1.20;;
73816;SDS011;62146;53.232;-1.304;2023-04-07T00:13:09;6.68;;;1.35;;
73816;SDS011;62146;53.232;-1.304;2023-04-07T00:15:35;3.55;;;1.00;;
73816;SDS011;62146;53.232;-1.304;2023-04-07T00:18:02;5.47;;;1.48;;
73816;SDS011;62146;53.232;-1.304;2023-04-07T00:20:29;4.53;;;1.03;;
73816;SDS011;62146;53.232;-1.304;2023-04-07T00:22:55;4.95;;;1.40;;
73816;SDS011;62146;53.232;-1.304;2023-04-07T00:25:22;4.32;;;1.30;;
73816;SDS011;62146;53.232;-1.304;2023-04-07T00:27:49;6.40;;;1.55;;
73816;SDS011;62146;53.232;-1.304;2023-04-07T00:30:15;4.00;;;1.30;;
73816;SDS011;62146;53.232;-1.304;2023-04-07T00:32:43;7.20;;;1.57;;
73816;SDS011;62146;53.232;-1.304;2023-04-07T00:35:10;5.93;;;1.30;;
73816;SDS011;62146;53.232;-1.304;2023-04-07T00:37:37;4.97;;;1.60;;
73816;SDS011;62146;53.232;-1.304;2023-04-07T00:40:04;5.00;;;1.20;;
73816;SDS011;62146;53.232;-1.304;2023-04-07T00:42:32;7.63;;;1.33;;
73816;SDS011;62146;53.232;-1.304;2023-04-07T00:44:58;5.00;;;1.30;;
73816;SDS011;62146;53.232;-1.304;2023-04-07T00:47:25;4.90;;;1.38;;
73816;SDS011;62146;53.232;-1.304;2023-04-07T00:49:51;6.13;;;1.52;;
73816;SDS011;62146;53.232;-1.304;2023-04-07T00:52:18;6.07;;;1.70;;
73816;SDS011;62146;53.232;-1.304;2023-04-07T00:54:52;5.95;;;1.73;;
73816;SDS011;62146;53.232;-1.304;2023-04-07T00:57:22;9.07;;;2.00;;
73816;SDS011;62146;53.232;-1.304;2023-04-07T00:59:49;7.45;;;2.50;;
73816;SDS011;62146;53.232;-1.304;2023-04-07T01:02:20;9.88;;;3.15;;
73816;SDS011;62146;53.232;-1.304;2023-04-07T01:10:14;10.17;;;2.67;;
73816;SDS011;62146;53.232;-1.304;2023-04-07T01:15:51;9.85;;;3.50;;
73816;SDS011;62146;53.232;-1.304;2023-04-07T01:18:26;8.85;;;3.22;;
73816;SDS011;62146;53.232;-1.304;2023-04-07T01:20:59;10.27;;;3.63;;
73816;SDS011;62146;53.232;-1.304;2023-04-07T01:26:22;9.75;;;3.20;;
73816;SDS011;62146;53.232;-1.304;2023-04-07T01:28:56;10.30;;;3.55;;
73816;SDS011;62146;53.232;-1.304;2023-04-07T01:31:29;11.98;;;3.60;;
73816;SDS011;62146;53.232;-1.304;2023-04-07T01:33:56;8.45;;;3.17;;
73816;SDS011;62146;53.232;-1.304;2023-04-07T01:36:26;8.67;;;3.20;;
73816;SDS011;62146;53.232;-1.304;2023-04-07T01:38:54;10.52;;;3.40;;
73816;SDS011;62146;53.232;-1.304;2023-04-07T01:41:22;6.93;;;2.88;;
73816;SDS011;62146;53.232;-1.304;2023-04-07T01:43:49;8.10;;;2.50;;
73816;SDS011;62146;53.232;-1.304;2023-04-07T01:46:17;7.53;;;2.67;;
73816;SDS011;62146;53.232;-1.304;2023-04-07T01:48:44;7.73;;;2.47;;
73816;SDS011;62146;53.232;-1.304;2023-04-07T01:51:13;6.78;;;2.40;;
73816;SDS011;62146;53.232;-1.304;2023-04-07T01:53:45;8.80;;;2.53;;
73816;SDS011;62146;53.232;-1.304;2023-04-07T01:56:12;8.88;;;2.30;;
73816;SDS011;62146;53.232;-1.304;2023-04-07T01:58:39;6.38;;;2.22;;
73816;SDS011;62146;53.232;-1.304;2023-04-07T02:01:06;6.07;;;2.10;;
73816;SDS011;62146;53.232;-1.304;2023-04-07T02:03:42;8.45;;;2.30;;
73816;SDS011;62146;53.232;-1.304;2023-04-07T02:06:17;5.95;;;1.80;;
73816;SDS011;62146;53.232;-1.304;2023-04-07T02:08:49;8.73;;;2.10;;
73816;SDS011;62146;53.232;-1.304;2023-04-07T02:11:20;6.88;;;1.88;;
73816;SDS011;62146;53.232;-1.304;2023-04-07T02:13:47;5.23;;;1.80;;
73816;SDS011;62146;53.232;-1.304;2023-04-07T02:16:17;6.53;;;1.88;;
73816;SDS011;62146;53.232;-1.304;2023-04-07T02:18:46;5.38;;;2.00;;
73816;SDS011;62146;53.232;-1.304;2023-04-07T02:21:13;6.80;;;1.58;;
73816;SDS011;62146;53.232;-1.304;2023-04-07T02:23:41;6.18;;;2.13;;
73816;SDS011;62146;53.232;-1.304;2023-04-07T02:26:07;5.13;;;1.73;;
73816;SDS011;62146;53.232;-1.304;2023-04-07T02:28:34;3.85;;;1.45;;
73816;SDS011;62146;53.232;-1.304;2023-04-07T02:31:01;5.47;;;1.63;;
73816;SDS011;62146;53.232;-1.304;2023-04-07T02:33:28;5.82;;;1.80;;
73816;SDS011;62146;53.232;-1.304;2023-04-07T02:35:54;7.03;;;1.65;;
73816;SDS011;62146;53.232;-1.304;2023-04-07T02:38:21;6.33;;;1.20;;
73816;SDS011;62146;53.232;-1.304;2023-04-07T02:40:47;4.80;;;1.40;;
73816;SDS011;62146;53.232;-1.304;2023-04-07T02:43:14;4.32;;;1.30;;
73816;SDS011;62146;53.232;-1.304;2023-04-07T02:45:41;6.72;;;1.55;;
73816;SDS011;62146;53.232;-1.304;2023-04-07T02:48:08;4.72;;;1.50;;
73816;SDS011;62146;53.232;-1.304;2023-04-07T02:50:34;4.53;;;1.30;;
73816;SDS011;62146;53.232;-1.304;2023-04-07T02:53:01;4.35;;;1.42;;
73816;SDS011;62146;53.232;-1.304;2023-04-07T02:55:27;6.43;;;1.70;;
73816;SDS011;62146;53.232;-1.304;2023-04-07T02:57:54;3.88;;;1.30;;
73816;SDS011;62146;53.232;-1.304;2023-04-07T03:00:21;4.00;;;1.08;;
73816;SDS011;62146;53.232;-1.304;2023-04-07T03:02:47;5.40;;;1.10;;
73816;SDS011;62146;53.232;-1.304;2023-04-07T03:05:14;3.28;;;1.10;;
73816;SDS011;62146;53.232;-1.304;2023-04-07T03:07:40;4.63;;;1.17;;
73816;SDS011;62146;53.232;-1.304;2023-04-07T03:10:07;3.35;;;0.93;;
73816;SDS011;62146;53.232;-1.304;2023-04-07T03:12:34;3.88;;;0.98;;
73816;SDS011;62146;53.232;-1.304;2023-04-07T03:15:01;3.97;;;1.00;;
73816;SDS011;62146;53.232;-1.304;2023-04-07T03:17:27;6.25;;;1.10;;
73816;SDS011;62146;53.232;-1.304;2023-04-07T03:19:54;3.30;;;0.90;;
73816;SDS011;62146;53.232;-1.304;2023-04-07T03:22:20;3.55;;;1.08;;
73816;SDS011;62146;53.232;-1.304;2023-04-07T03:24:47;4.43;;;1.05;;
73816;SDS011;62146;53.232;-1.304;2023-04-07T03:27:14;2.60;;;0.80;;
73816;SDS011;62146;53.232;-1.304;2023-04-07T03:29:42;3.85;;;0.93;;
73816;SDS011;62146;53.232;-1.304;2023-04-07T03:32:09;4.07;;;1.08;;
73816;SDS011;62146;53.232;-1.304;2023-04-07T03:34:35;2.80;;;0.90;;
73816;SDS011;62146;53.232;-1.304;2023-04-07T03:37:02;3.60;;;0.95;;
73816;SDS011;62146;53.232;-1.304;2023-04-07T03:39:28;3.73;;;0.93;;
73816;SDS011;62146;53.232;-1.304;2023-04-07T03:41:56;4.28;;;1.13;;
73816;SDS011;62146;53.232;-1.304;2023-04-07T03:44:22;4.22;;;0.73;;
73816;SDS011;62146;53.232;-1.304;2023-04-07T03:46:49;2.53;;;0.77;;
73816;SDS011;62146;53.232;-1.304;2023-04-07T03:49:16;2.95;;;0.70;;
73816;SDS011;62146;53.232;-1.304;2023-04-07T03:51:42;2.87;;;0.87;;
73816;SDS011;62146;53.232;-1.304;2023-04-07T03:54:09;3.63;;;1.23;;
73816;SDS011;62146;53.232;-1.304;2023-04-07T03:56:35;4.65;;;1.00;;
73816;SDS011;62146;53.232;-1.304;2023-04-07T03:59:02;3.92;;;0.82;;
73816;SDS011;62146;53.232;-1.304;2023-04-07T04:01:29;4.38;;;0.80;;
73816;SDS011;62146;53.232;-1.304;2023-04-07T04:03:56;4.73;;;1.00;;
73816;SDS011;62146;53.232;-1.304;2023-04-07T04:06:23;4.28;;;1.00;;
73816;SDS011;62146;53.232;-1.304;2023-04-07T04:08:52;6.35;;;1.00;;
73816;SDS011;62146;53.232;-1.304;2023-04-07T04:11:18;4.53;;;1.10;;
73816;SDS011;62146;53.232;-1.304;2023-04-07T04:13:45;5.32;;;1.00;;
73816;SDS011;62146;53.232;-1.304;2023-04-07T04:16:12;4.97;;;1.00;;
73816;SDS011;62146;53.232;-1.304;2023-04-07T04:18:40;2.90;;;0.80;;
73816;SDS011;62146;53.232;-1.304;2023-04-07T04:21:07;3.95;;;0.90;;
73816;SDS011;62146;53.232;-1.304;2023-04-07T04:23:34;3.83;;;1.08;;
73816;SDS011;62146;53.232;-1.304;2023-04-07T04:26:01;2.83;;;0.82;;
73816;SDS011;62146;53.232;-1.304;2023-04-07T04:28:29;5.73;;;1.20;;
73816;SDS011;62146;53.232;-1.304;2023-04-07T04:30:55;3.45;;;0.80;;
73816;SDS011;62146;53.232;-1.304;2023-04-07T04:33:22;4.13;;;0.90;;
73816;SDS011;62146;53.232;-1.304;2023-04-07T04:35:49;4.90;;;0.90;;
73816;SDS011;62146;53.232;-1.304;2023-04-07T04:38:15;3.28;;;0.93;;
73816;SDS011;62146;53.232;-1.304;2023-04-07T04:40:42;2.37;;;0.73;;
73816;SDS011;62146;53.232;-1.304;2023-04-07T04:43:09;3.03;;;0.95;;
73816;SDS011;62146;53.232;-1.304;2023-04-07T04:45:36;3.33;;;0.90;;
73816;SDS011;62146;53.232;-1.304;2023-04-07T04:48:03;4.95;;;1.13;;
73816;SDS011;62146;53.232;-1.304;2023-04-07T04:50:30;6.53;;;0.90;;
73816;SDS011;62146;53.232;-1.304;2023-04-07T04:52:56;3.03;;;0.93;;
73816;SDS011;62146;53.232;-1.304;2023-04-07T04:55:23;5.13;;;1.20;;
73816;SDS011;62146;53.232;-1.304;2023-04-07T04:57:50;3.75;;;0.85;;
73816;SDS011;62146;53.232;-1.304;2023-04-07T05:00:16;3.45;;;0.82;;
73816;SDS011;62146;53.232;-1.304;2023-04-07T05:02:43;3.90;;;1.00;;
73816;SDS011;62146;53.232;-1.304;2023-04-07T05:05:13;3.43;;;0.80;;
73816;SDS011;62146;53.232;-1.304;2023-04-07T05:07:40;3.50;;;0.85;;
73816;SDS011;62146;53.232;-1.304;2023-04-07T05:10:07;3.75;;;1.00;;
73816;SDS011;62146;53.232;-1.304;2023-04-07T05:12:34;4.03;;;1.00;;
73816;SDS011;62146;53.232;-1.304;2023-04-07T05:15:03;3.40;;;0.82;;
73816;SDS011;62146;53.232;-1.304;2023-04-07T05:17:30;4.60;;;0.80;;
73816;SDS011;62146;53.232;-1.304;2023-04-07T05:19:57;3.72;;;1.10;;
73816;SDS011;62146;53.232;-1.304;2023-04-07T05:22:24;5.07;;;1.10;;
73816;SDS011;62146;53.232;-1.304;2023-04-07T05:24:50;2.72;;;0.63;;
73816;SDS011;62146;53.232;-1.304;2023-04-07T05:27:17;4.15;;;1.08;;
73816;SDS011;62146;53.232;-1.304;2023-04-07T05:29:43;4.93;;;1.03;;
73816;SDS011;62146;53.232;-1.304;2023-04-07T05:32:10;3.17;;;0.90;;
73816;SDS011;62146;53.232;-1.304;2023-04-07T05:34:36;2.75;;;0.98;;
73816;SDS011;62146;53.232;-1.304;2023-04-07T05:37:03;4.80;;;0.93;;
73816;SDS011;62146;53.232;-1.304;2023-04-07T05:39:29;3.67;;;0.98;;
73816;SDS011;62146;53.232;-1.304;2023-04-07T05:41:56;4.43;;;0.97;;
73816;SDS011;62146;53.232;-1.304;2023-04-07T05:44:23;4.00;;;1.05;;
73816;SDS011;62146;53.232;-1.304;2023-04-07T05:46:49;4.13;;;1.20;;
73816;SDS011;62146;53.232;-1.304;2023-04-07T05:49:16;7.55;;;1.15;;
73816;SDS011;62146;53.232;-1.304;2023-04-07T05:51:45;4.75;;;0.90;;
73816;SDS011;62146;53.232;-1.304;2023-04-07T05:54:14;5.57;;;1.10;;
73816;SDS011;62146;53.232;-1.304;2023-04-07T05:56:41;3.65;;;1.00;;
73816;SDS011;62146;53.232;-1.304;2023-04-07T05:59:07;3.90;;;1.20;;
73816;SDS011;62146;53.232;-1.304;2023-04-07T06:01:35;3.45;;;1.00;;
73816;SDS011;62146;53.232;-1.304;2023-04-07T06:04:01;6.32;;;1.20;;
73816;SDS011;62146;53.232;-1.304;2023-04-07T06:06:28;2.97;;;0.90;;
73816;SDS011;62146;53.232;-1.304;2023-04-07T06:08:56;5.97;;;1.02;;
73816;SDS011;62146;53.232;-1.304;2023-04-07T06:11:24;3.70;;;1.20;;
73816;SDS011;62146;53.232;-1.304;2023-04-07T06:13:51;6.38;;;1.50;;
73816;SDS011;62146;53.232;-1.304;2023-04-07T06:16:18;3.15;;;0.95;;
73816;SDS011;62146;53.232;-1.304;2023-04-07T06:18:45;4.77;;;1.10;;
73816;SDS011;62146;53.232;-1.304;2023-04-07T06:21:12;4.57;;;1.30;;
73816;SDS011;62146;53.232;-1.304;2023-04-07T06:23:38;3.65;;;1.30;;
73816;SDS011;62146;53.232;-1.304;2023-04-07T06:26:05;4.38;;;1.23;;
73816;SDS011;62146;53.232;-1.304;2023-04-07T06:28:35;7.97;;;1.10;;
73816;SDS011;62146;53.232;-1.304;2023-04-07T06:31:02;4.53;;;1.07;;
73816;SDS011;62146;53.232;-1.304;2023-04-07T06:33:28;4.03;;;1.08;;
73816;SDS011;62146;53.232;-1.304;2023-04-07T06:35:55;4.60;;;1.25;;
73816;SDS011;62146;53.232;-1.304;2023-04-07T06:38:22;4.78;;;1.10;;
73816;SDS011;62146;53.232;-1.304;2023-04-07T06:40:49;5.40;;;1.50;;
73816;SDS011;62146;53.232;-1.304;2023-04-07T06:43:17;5.43;;;1.20;;
73816;SDS011;62146;53.232;-1.304;2023-04-07T06:45:43;4.55;;;1.38;;
73816;SDS011;62146;53.232;-1.304;2023-04-07T06:48:10;7.20;;;1.23;;
73816;SDS011;62146;53.232;-1.304;2023-04-07T06:50:36;9.95;;;1.35;;
73816;SDS011;62146;53.232;-1.304;2023-04-07T06:53:06;6.57;;;1.17;;
73816;SDS011;62146;53.232;-1.304;2023-04-07T06:55:32;4.87;;;1.50;;
73816;SDS011;62146;53.232;-1.304;2023-04-07T06:57:59;4.78;;;1.50;;
73816;SDS011;62146;53.232;-1.304;2023-04-07T07:00:25;5.57;;;1.33;;
73816;SDS011;62146;53.232;-1.304;2023-04-07T07:02:55;4.55;;;1.63;;
73816;SDS011;62146;53.232;-1.304;2023-04-07T07:05:22;4.95;;;1.40;;
73816;SDS011;62146;53.232;-1.304;2023-04-07T07:07:49;5.37;;;1.07;;
73816;SDS011;62146;53.232;-1.304;2023-04-07T07:10:17;5.13;;;1.40;;
73816;SDS011;62146;53.232;-1.304;2023-04-07T07:12:45;4.80;;;1.00;;
73816;SDS011;62146;53.232;-1.304;2023-04-07T07:15:12;3.13;;;0.93;;
73816;SDS011;62146;53.232;-1.304;2023-04-07T07:17:38;3.47;;;1.10;;
73816;SDS011;62146;53.232;-1.304;2023-04-07T07:20:05;6.93;;;1.10;;
73816;SDS011;62146;53.232;-1.304;2023-04-07T07:22:32;3.72;;;1.02;;
73816;SDS011;62146;53.232;-1.304;2023-04-07T07:24:59;4.43;;;1.20;;
73816;SDS011;62146;53.232;-1.304;2023-04-07T07:27:26;6.03;;;1.60;;
73816;SDS011;62146;53.232;-1.304;2023-04-07T07:29:52;4.50;;;0.90;;
73816;SDS011;62146;53.232;-1.304;2023-04-07T07:32:19;4.77;;;1.10;;
73816;SDS011;62146;53.232;-1.304;2023-04-07T07:34:45;3.88;;;0.90;;
73816;SDS011;62146;53.232;-1.304;2023-04-07T07:37:12;5.00;;;1.30;;
73816;SDS011;62146;53.232;-1.304;2023-04-07T07:39:38;2.67;;;0.95;;
73816;SDS011;62146;53.232;-1.304;2023-04-07T07:42:05;4.35;;;0.98;;
73816;SDS011;62146;53.232;-1.304;2023-04-07T07:44:32;4.13;;;0.97;;
73816;SDS011;62146;53.232;-1.304;2023-04-07T07:46:58;2.92;;;0.80;;
73816;SDS011;62146;53.232;-1.304;2023-04-07T07:49:25;3.70;;;0.95;;
73816;SDS011;62146;53.232;-1.304;2023-04-07T07:51:52;4.30;;;0.85;;
73816;SDS011;62146;53.232;-1.304;2023-04-07T07:54:18;3.28;;;0.95;;
73816;SDS011;62146;53.232;-1.304;2023-04-07T07:56:45;3.03;;;0.90;;
73816;SDS011;62146;53.232;-1.304;2023-04-07T07:59:12;3.33;;;0.88;;
73816;SDS011;62146;53.232;-1.304;2023-04-07T08:01:38;3.15;;;0.80;;
73816;SDS011;62146;53.232;-1.304;2023-04-07T08:04:05;3.08;;;0.80;;
73816;SDS011;62146;53.232;-1.304;2023-04-07T08:06:32;3.15;;;0.80;;
73816;SDS011;62146;53.232;-1.304;2023-04-07T08:08:59;2.97;;;0.70;;
73816;SDS011;62146;53.232;-1.304;2023-04-07T08:11:25;4.22;;;0.95;;
73816;SDS011;62146;53.232;-1.304;2023-04-07T08:13:52;3.03;;;0.88;;
73816;SDS011;62146;53.232;-1.304;2023-04-07T08:16:19;3.42;;;0.93;;
73816;SDS011;62146;53.232;-1.304;2023-04-07T08:18:47;4.40;;;1.23;;
73816;SDS011;62146;53.232;-1.304;2023-04-07T08:21:14;3.90;;;1.00;;
73816;SDS011;62146;53.232;-1.304;2023-04-07T08:23:41;4.03;;;0.80;;
73816;SDS011;62146;53.232;-1.304;2023-04-07T08:26:08;2.83;;;0.85;;
73816;SDS011;62146;53.232;-1.304;2023-04-07T08:28:34;4.38;;;0.80;;
73816;SDS011;62146;53.232;-1.304;2023-04-07T08:31:01;3.15;;;0.80;;
73816;SDS011;62146;53.232;-1.304;2023-04-07T08:33:28;2.13;;;0.70;;
73816;SDS011;62146;53.232;-1.304;2023-04-07T08:35:54;3.47;;;0.90;;
73816;SDS011;62146;53.232;-1.304;2023-04-07T08:38:21;2.58;;;0.90;;
73816;SDS011;62146;53.232;-1.304;2023-04-07T08:40:48;2.97;;;0.60;;
73816;SDS011;62146;53.232;-1.304;2023-04-07T08:43:22;3.75;;;0.70;;
73816;SDS011;62146;53.232;-1.304;2023-04-07T08:45:51;3.20;;;0.90;;
73816;SDS011;62146;53.232;-1.304;2023-04-07T08:48:22;3.15;;;0.80;;
73816;SDS011;62146;53.232;-1.304;2023-04-07T08:50:52;3.45;;;0.90;;
73816;SDS011;62146;53.232;-1.304;2023-04-07T08:53:22;1.90;;;0.57;;
73816;SDS011;62146;53.232;-1.304;2023-04-07T08:55:54;5.50;;;0.75;;
73816;SDS011;62146;53.232;-1.304;2023-04-07T08:58:21;2.33;;;0.80;;
73816;SDS011;62146;53.232;-1.304;2023-04-07T09:00:49;2.53;;;0.82;;
73816;SDS011;62146;53.232;-1.304;2023-04-07T09:03:16;6.22;;;1.30;;
73816;SDS011;62146;53.232;-1.304;2023-04-07T09:05:44;3.83;;;1.10;;
73816;SDS011;62146;53.232;-1.304;2023-04-07T09:08:13;3.53;;;1.00;;
73816;SDS011;62146;53.232;-1.304;2023-04-07T09:10:40;2.57;;;1.00;;
73816;SDS011;62146;53.232;-1.304;2023-04-07T09:13:07;3.15;;;1.00;;
73816;SDS011;62146;53.232;-1.304;2023-04-07T09:15:33;3.20;;;0.85;;
73816;SDS011;62146;53.232;-1.304;2023-04-07T09:18:03;2.70;;;0.93;;
73816;SDS011;62146;53.232;-1.304;2023-04-07T09:21:16;3.47;;;0.90;;
73816;SDS011;62146;53.232;-1.304;2023-04-07T09:23:28;2.00;;;0.70;;
73816;SDS011;62146;53.232;-1.304;2023-04-07T09:25:56;4.28;;;0.90;;
73816;SDS011;62146;53.232;-1.304;2023-04-07T09:28:46;2.95;;;0.82;;
73816;SDS011;62146;53.232;-1.304;2023-04-07T09:31:13;2.42;;;0.80;;
73816;SDS011;62146;53.232;-1.304;2023-04-07T09:33:40;2.88;;;0.80;;
73816;SDS011;62146;53.232;-1.304;2023-04-07T09:36:07;3.67;;;0.70;;
73816;SDS011;62146;53.232;-1.304;2023-04-07T09:38:34;3.22;;;0.90;;
73816;SDS011;62146;53.232;-1.304;2023-04-07T09:41:10;2.50;;;0.75;;
73816;SDS011;62146;53.232;-1.304;2023-04-07T09:43:39;2.85;;;0.80;;
73816;SDS011;62146;53.232;-1.304;2023-04-07T09:48:40;3.77;;;0.60;;
73816;SDS011;62146;53.232;-1.304;2023-04-07T09:51:16;3.08;;;1.15;;
73816;SDS011;62146;53.232;-1.304;2023-04-07T09:53:47;1.92;;;0.63;;
73816;SDS011;62146;53.232;-1.304;2023-04-07T09:56:18;2.47;;;0.77;;
73816;SDS011;62146;53.232;-1.304;2023-04-07T09:58:48;5.13;;;0.80;;
73816;SDS011;62146;53.232;-1.304;2023-04-07T10:01:17;2.83;;;0.60;;
73816;SDS011;62146;53.232;-1.304;2023-04-07T10:03:44;2.70;;;0.70;;
73816;SDS011;62146;53.232;-1.304;2023-04-07T10:06:13;2.92;;;0.68;;
73816;SDS011;62146;53.232;-1.304;2023-04-07T10:08:40;3.08;;;0.80;;
73816;SDS011;62146;53.232;-1.304;2023-04-07T10:11:08;2.80;;;0.90;;
73816;SDS011;62146;53.232;-1.304;2023-04-07T10:13:36;3.03;;;0.70;;
73816;SDS011;62146;53.232;-1.304;2023-04-07T10:16:06;2.50;;;0.65;;
73816;SDS011;62146;53.232;-1.304;2023-04-07T10:18:34;2.28;;;0.80;;
73816;SDS011;62146;53.232;-1.304;2023-04-07T10:21:03;3.20;;;0.70;;
73816;SDS011;62146;53.232;-1.304;2023-04-07T10:26:09;2.43;;;0.70;;
73816;SDS011;62146;53.232;-1.304;2023-04-07T10:28:37;2.97;;;0.60;;
73816;SDS011;62146;53.232;-1.304;2023-04-07T10:31:07;2.95;;;0.90;;
73816;SDS011;62146;53.232;-1.304;2023-04-07T10:36:13;3.13;;;0.70;;
73816;SDS011;62146;53.232;-1.304;2023-04-07T10:38:39;2.93;;;0.70;;
73816;SDS011;62146;53.232;-1.304;2023-04-07T10:44:07;3.90;;;0.70;;
73816;SDS011;62146;53.232;-1.304;2023-04-07T10:49:11;3.40;;;0.90;;
73816;SDS011;62146;53.232;-1.304;2023-04-07T10:51:44;2.70;;;0.80;;
73816;SDS011;62146;53.232;-1.304;2023-04-07T10:54:36;3.47;;;0.80;;
73816;SDS011;62146;53.232;-1.304;2023-04-07T11:02:36;2.45;;;0.80;;
73816;SDS011;62146;53.232;-1.304;2023-04-07T11:05:05;2.40;;;0.70;;
73816;SDS011;62146;53.232;-1.304;2023-04-07T11:07:42;3.22;;;0.80;;
73816;SDS011;62146;53.232;-1.304;2023-04-07T11:10:10;3.80;;;0.90;;
73816;SDS011;62146;53.232;-1.304;2023-04-07T11:12:37;2.25;;;0.73;;
73816;SDS011;62146;53.232;-1.304;2023-04-07T11:15:20;4.63;;;0.80;;
73816;SDS011;62146;53.232;-1.304;2023-04-07T11:20:41;3.10;;;1.08;;
73816;SDS011;62146;53.232;-1.304;2023-04-07T11:23:10;3.55;;;0.77;;
73816;SDS011;62146;53.232;-1.304;2023-04-07T11:25:37;3.88;;;0.90;;
73816;SDS011;62146;53.232;-1.304;2023-04-07T11:28:04;4.53;;;0.80;;
73816;SDS011;62146;53.232;-1.304;2023-04-07T11:30:30;3.77;;;0.80;;
73816;SDS011;62146;53.232;-1.304;2023-04-07T11:32:57;2.67;;;0.85;;
73816;SDS011;62146;53.232;-1.304;2023-04-07T11:35:24;2.53;;;0.70;;
73816;SDS011;62146;53.232;-1.304;2023-04-07T11:37:56;2.45;;;0.82;;
73816;SDS011;62146;53.232;-1.304;2023-04-07T11:40:30;3.30;;;0.88;;
73816;SDS011;62146;53.232;-1.304;2023-04-07T11:43:02;3.23;;;0.83;;
73816;SDS011;62146;53.232;-1.304;2023-04-07T11:45:41;3.15;;;1.30;;
73816;SDS011;62146;53.232;-1.304;2023-04-07T11:50:55;2.85;;;0.70;;
73816;SDS011;62146;53.232;-1.304;2023-04-07T11:53:25;3.42;;;0.80;;
73816;SDS011;62146;53.232;-1.304;2023-04-07T11:56:00;5.10;;;0.90;;
73816;SDS011;62146;53.232;-1.304;2023-04-07T11:58:28;3.33;;;0.75;;
73816;SDS011;62146;53.232;-1.304;2023-04-07T12:00:55;3.33;;;0.80;;
73816;SDS011;62146;53.232;-1.304;2023-04-07T12:03:22;2.58;;;0.80;;
73816;SDS011;62146;53.232;-1.304;2023-04-07T12:05:50;3.28;;;0.70;;
73816;SDS011;62146;53.232;-1.304;2023-04-07T12:08:17;2.60;;;0.80;;
73816;SDS011;62146;53.232;-1.304;2023-04-07T12:10:44;2.03;;;0.60;;
73816;SDS011;62146;53.232;-1.304;2023-04-07T12:13:12;3.20;;;0.70;;
73816;SDS011;62146;53.232;-1.304;2023-04-07T12:15:39;2.03;;;0.70;;
73816;SDS011;62146;53.232;-1.304;2023-04-07T12:18:05;2.40;;;0.70;;
73816;SDS011;62146;53.232;-1.304;2023-04-07T12:20:32;3.77;;;0.70;;
73816;SDS011;62146;53.232;-1.304;2023-04-07T12:23:01;3.65;;;0.73;;
73816;SDS011;62146;53.232;-1.304;2023-04-07T12:25:27;1.67;;;0.60;;
73816;SDS011;62146;53.232;-1.304;2023-04-07T12:27:54;3.38;;;0.70;;
73816;SDS011;62146;53.232;-1.304;2023-04-07T12:30:20;1.90;;;0.80;;
73816;SDS011;62146;53.232;-1.304;2023-04-07T12:32:47;2.83;;;0.90;;
73816;SDS011;62146;53.232;-1.304;2023-04-07T12:35:14;3.55;;;0.70;;
73816;SDS011;62146;53.232;-1.304;2023-04-07T12:37:41;2.92;;;0.73;;
73816;SDS011;62146;53.232;-1.304;2023-04-07T12:40:07;2.70;;;0.60;;
73816;SDS011;62146;53.232;-1.304;2023-04-07T12:42:34;3.00;;;0.60;;
73816;SDS011;62146;53.232;-1.304;2023-04-07T12:45:01;2.90;;;0.57;;
73816;SDS011;62146;53.232;-1.304;2023-04-07T12:47:28;2.40;;;0.50;;
73816;SDS011;62146;53.232;-1.304;2023-04-07T12:49:55;3.00;;;0.60;;
73816;SDS011;62146;53.232;-1.304;2023-04-07T12:52:21;3.85;;;0.63;;
73816;SDS011;62146;53.232;-1.304;2023-04-07T12:54:48;3.45;;;0.70;;
73816;SDS011;62146;53.232;-1.304;2023-04-07T12:57:14;2.67;;;0.70;;
73816;SDS011;62146;53.232;-1.304;2023-04-07T12:59:41;2.22;;;0.68;;
73816;SDS011;62146;53.232;-1.304;2023-04-07T13:02:08;2.83;;;0.60;;
73816;SDS011;62146;53.232;-1.304;2023-04-07T13:04:35;2.90;;;0.70;;
73816;SDS011;62146;53.232;-1.304;2023-04-07T13:07:06;3.70;;;0.90;;
73816;SDS011;62146;53.232;-1.304;2023-04-07T13:09:33;2.47;;;0.50;;
73816;SDS011;62146;53.232;-1.304;2023-04-07T13:12:00;2.47;;;0.70;;
73816;SDS011;62146;53.232;-1.304;2023-04-07T13:14:26;4.65;;;0.70;;
73816;SDS011;62146;53.232;-1.304;2023-04-07T13:16:53;2.58;;;0.70;;
73816;SDS011;62146;53.232;-1.304;2023-04-07T13:19:19;4.18;;;0.80;;
73816;SDS011;62146;53.232;-1.304;2023-04-07T13:21:46;2.17;;;0.67;;
73816;SDS011;62146;53.232;-1.304;2023-04-07T13:24:13;2.78;;;0.70;;
73816;SDS011;62146;53.232;-1.304;2023-04-07T13:26:40;3.83;;;0.70;;
73816;SDS011;62146;53.232;-1.304;2023-04-07T13:29:07;2.75;;;0.70;;
73816;SDS011;62146;53.232;-1.304;2023-04-07T13:31:33;3.35;;;0.70;;
73816;SDS011;62146;53.232;-1.304;2023-04-07T13:34:00;2.67;;;0.70;;
73816;SDS011;62146;53.232;-1.304;2023-04-07T13:36:26;2.17;;;0.57;;
73816;SDS011;62146;53.232;-1.304;2023-04-07T13:38:53;3.10;;;0.80;;
73816;SDS011;62146;53.232;-1.304;2023-04-07T13:41:20;2.67;;;0.80;;
73816;SDS011;62146;53.232;-1.304;2023-04-07T13:43:47;3.88;;;0.77;;
73816;SDS011;62146;53.232;-1.304;2023-04-07T13:46:14;3.33;;;0.77;;
73816;SDS011;62146;53.232;-1.304;2023-04-07T13:48:53;2.20;;;0.60;;
73816;SDS011;62146;53.232;-1.304;2023-04-07T13:51:20;3.03;;;0.80;;
73816;SDS011;62146;53.232;-1.304;2023-04-07T13:53:47;2.83;;;0.52;;
73816;SDS011;62146;53.232;-1.304;2023-04-07T13:56:14;2.08;;;0.70;;
73816;SDS011;62146;53.232;-1.304;2023-04-07T13:58:40;2.23;;;0.70;;
73816;SDS011;62146;53.232;-1.304;2023-04-07T14:01:07;1.88;;;0.60;;
73816;SDS011;62146;53.232;-1.304;2023-04-07T14:03:34;2.83;;;0.70;;
73816;SDS011;62146;53.232;-1.304;2023-04-07T14:06:01;2.95;;;0.60;;
73816;SDS011;62146;53.232;-1.304;2023-04-07T14:08:28;3.47;;;0.80;;
73816;SDS011;62146;53.232;-1.304;2023-04-07T14:10:54;2.00;;;0.53;;
73816;SDS011;62146;53.232;-1.304;2023-04-07T14:13:21;2.75;;;0.70;;
73816;SDS011;62146;53.232;-1.304;2023-04-07T14:15:48;2.10;;;0.68;;
73816;SDS011;62146;53.232;-1.304;2023-04-07T14:18:15;2.13;;;0.70;;
73816;SDS011;62146;53.232;-1.304;2023-04-07T14:20:42;1.48;;;0.60;;
73816;SDS011;62146;53.232;-1.304;2023-04-07T14:23:09;3.43;;;0.67;;
73816;SDS011;62146;53.232;-1.304;2023-04-07T14:25:37;3.17;;;0.70;;
73816;SDS011;62146;53.232;-1.304;2023-04-07T14:28:04;2.65;;;0.70;;
73816;SDS011;62146;53.232;-1.304;2023-04-07T14:30:30;2.53;;;0.80;;
73816;SDS011;62146;53.232;-1.304;2023-04-07T14:33:03;2.55;;;0.80;;
73816;SDS011;62146;53.232;-1.304;2023-04-07T14:35:30;2.97;;;1.00;;
73816;SDS011;62146;53.232;-1.304;2023-04-07T14:37:57;2.92;;;0.80;;
73816;SDS011;62146;53.232;-1.304;2023-04-07T14:40:24;2.38;;;0.70;;
73816;SDS011;62146;53.232;-1.304;2023-04-07T14:42:51;3.97;;;0.70;;
73816;SDS011;62146;53.232;-1.304;2023-04-07T14:45:19;3.55;;;0.80;;
73816;SDS011;62146;53.232;-1.304;2023-04-07T14:47:46;3.13;;;0.70;;
73816;SDS011;62146;53.232;-1.304;2023-04-07T14:50:13;2.47;;;0.77;;
73816;SDS011;62146;53.232;-1.304;2023-04-07T14:52:39;4.78;;;0.88;;
73816;SDS011;62146;53.232;-1.304;2023-04-07T14:55:06;2.50;;;0.70;;
73816;SDS011;62146;53.232;-1.304;2023-04-07T14:57:33;2.45;;;0.60;;
73816;SDS011;62146;53.232;-1.304;2023-04-07T15:00:00;2.40;;;0.80;;
73816;SDS011;62146;53.232;-1.304;2023-04-07T15:02:26;2.70;;;0.68;;
73816;SDS011;62146;53.232;-1.304;2023-04-07T15:04:54;2.50;;;0.70;;
73816;SDS011;62146;53.232;-1.304;2023-04-07T15:07:21;1.83;;;0.60;;
73816;SDS011;62146;53.232;-1.304;2023-04-07T15:09:47;2.60;;;0.60;;
73816;SDS011;62146;53.232;-1.304;2023-04-07T15:12:14;1.80;;;0.60;;